This London Heathrow Airport weather forecast is generated by the Met Office Weather Widget

AirNav RadarBox - Metar Weather
  London Heathrow Metar Weather
 

METAR = EGLL 280920Z AUTO 20004KT 110V250 9999 NCD 18/09 Q1016 NOSIG

STATION........ EGLL
OBSERVED....... Tue Jun 28, 10:20 BST
NOW............ Tue Jun 28, 10:31 BST
AGE............ 11 min ago
WIND........... SSW at 5 mph
VISIBILITY..... 16 miles

Tue Jun 28 2016, sunrise time : 03:52
Tue Jun 28 2016, sunset time : 20:17